createdAt,value
2022-12-18T00:02:42.322Z,10.75
2022-12-18T00:05:50.008Z,10.62
2022-12-18T00:08:59.253Z,10.54
2022-12-18T00:15:22.179Z,10.55
2022-12-18T00:18:28.177Z,10.59
2022-12-18T00:21:34.894Z,10.68
2022-12-18T00:24:42.137Z,10.66
2022-12-18T00:27:48.671Z,10.88
2022-12-18T00:31:02.650Z,10.85
2022-12-18T00:34:09.185Z,11.29
2022-12-18T00:37:19.913Z,11.33
2022-12-18T00:40:28.137Z,11.30
2022-12-18T00:43:33.173Z,11.27
2022-12-18T00:46:39.535Z,11.31
2022-12-18T00:49:46.805Z,11.24
2022-12-18T00:52:53.407Z,11.43
2022-12-18T00:56:01.344Z,11.25
2022-12-18T00:59:07.481Z,11.21
2022-12-18T01:02:13.986Z,11.27
2022-12-18T01:05:20.281Z,11.39
2022-12-18T01:08:26.824Z,11.47
2022-12-18T01:11:34.575Z,11.34
2022-12-18T01:14:40.715Z,11.34
2022-12-18T01:17:47.089Z,11.28
2022-12-18T01:20:53.348Z,11.10
2022-12-18T01:23:59.796Z,11.29
2022-12-18T01:27:08.045Z,11.32
2022-12-18T01:30:14.730Z,11.35
2022-12-18T01:33:21.051Z,11.37
2022-12-18T01:36:31.072Z,11.05
2022-12-18T01:39:37.701Z,11.17
2022-12-18T01:42:45.593Z,11.00
2022-12-18T01:45:51.938Z,11.14
2022-12-18T01:49:00.367Z,10.88
2022-12-18T01:52:06.885Z,10.90
2022-12-18T01:55:14.752Z,11.08
2022-12-18T01:58:29.920Z,11.06
2022-12-18T02:01:37.143Z,11.12
2022-12-18T02:04:49.203Z,11.05
2022-12-18T02:08:05.882Z,11.16
2022-12-18T02:11:20.779Z,11.17
2022-12-18T02:14:39.263Z,11.21
2022-12-18T02:17:52.705Z,11.14
2022-12-18T02:21:07.213Z,11.24
2022-12-18T02:24:27.598Z,11.09
2022-12-18T02:27:37.401Z,10.83
2022-12-18T02:30:45.286Z,11.00
2022-12-18T02:33:52.673Z,11.02
2022-12-18T02:37:01.044Z,10.99
2022-12-18T02:40:09.492Z,11.00
2022-12-18T02:43:18.070Z,10.84
2022-12-18T02:46:32.880Z,10.65
2022-12-18T03:05:55.583Z,10.87
2022-12-18T03:09:04.876Z,10.86
2022-12-18T03:12:26.106Z,10.94
2022-12-18T03:15:37.677Z,10.89
2022-12-18T03:18:49.369Z,10.79
2022-12-18T03:21:59.884Z,10.94
2022-12-18T03:25:10.869Z,10.59
2022-12-18T03:28:24.522Z,10.30
2022-12-18T03:31:32.985Z,10.47
2022-12-18T03:34:40.999Z,10.35
2022-12-18T03:37:48.455Z,10.24
2022-12-18T03:41:02.191Z,10.42
2022-12-18T03:44:15.997Z,10.31
2022-12-18T03:47:28.732Z,10.11
2022-12-18T03:50:45.918Z,10.39
2022-12-18T03:53:58.380Z,10.39
2022-12-18T03:57:09.671Z,10.32
2022-12-18T04:00:19.028Z,10.62
2022-12-18T04:03:26.926Z,10.51
2022-12-18T04:06:37.154Z,10.39
2022-12-18T04:09:46.932Z,10.49
2022-12-18T04:12:53.073Z,10.62
2022-12-18T04:15:59.493Z,10.45
2022-12-18T04:19:05.666Z,10.45
2022-12-18T04:22:12.667Z,10.52
2022-12-18T04:25:20.111Z,10.50
2022-12-18T04:28:26.138Z,10.30
2022-12-18T04:31:32.216Z,10.36
2022-12-18T04:34:38.378Z,10.41
2022-12-18T04:37:44.655Z,10.17
2022-12-18T04:40:52.392Z,10.26
2022-12-18T04:43:58.582Z,10.26
2022-12-18T04:47:05.251Z,10.29
2022-12-18T04:50:12.044Z,10.35
2022-12-18T04:53:18.269Z,10.33
2022-12-18T04:56:25.770Z,10.22
2022-12-18T04:59:32.104Z,10.35
2022-12-18T05:02:38.612Z,10.33
2022-12-18T05:05:44.610Z,10.30
2022-12-18T05:08:50.785Z,10.41
2022-12-18T05:11:58.644Z,10.18
2022-12-18T05:15:09.176Z,10.25
2022-12-18T05:18:15.457Z,10.18
2022-12-18T05:21:21.595Z,10.16
2022-12-18T05:24:27.883Z,9.98
2022-12-18T05:27:35.658Z,10.13
2022-12-18T05:30:50.780Z,10.12
2022-12-18T05:33:57.133Z,10.04
2022-12-18T05:37:03.083Z,9.99
2022-12-18T05:40:10.541Z,10.04
2022-12-18T05:43:21.459Z,9.76
2022-12-18T05:46:28.765Z,9.85
2022-12-18T05:49:35.161Z,9.79
2022-12-18T05:52:41.280Z,9.84
2022-12-18T05:55:50.358Z,9.91
2022-12-18T05:58:57.856Z,9.86
2022-12-18T06:02:04.244Z,9.59
2022-12-18T06:05:11.970Z,9.42
2022-12-18T06:08:17.766Z,9.83
2022-12-18T06:11:26.227Z,9.90
2022-12-18T06:14:33.948Z,9.93
2022-12-18T06:17:39.999Z,9.69
2022-12-18T06:20:45.950Z,10.25
2022-12-18T06:23:51.966Z,10.11
2022-12-18T06:26:58.420Z,10.18
2022-12-18T06:30:08.332Z,10.24
2022-12-18T06:33:14.458Z,10.00
2022-12-18T06:36:20.817Z,9.86
2022-12-18T06:39:29.201Z,10.07
2022-12-18T06:42:35.236Z,9.89
2022-12-18T06:45:43.368Z,10.13
2022-12-18T06:48:51.251Z,10.02
2022-12-18T06:51:57.324Z,9.77
2022-12-18T06:55:03.818Z,10.15
2022-12-18T06:58:10.440Z,9.93
2022-12-18T07:01:19.075Z,10.27
2022-12-18T07:04:30.213Z,10.20
2022-12-18T07:07:36.667Z,10.14
2022-12-18T07:10:47.615Z,10.38
2022-12-18T07:13:55.527Z,10.39
2022-12-18T07:17:02.903Z,10.23
2022-12-18T07:20:10.911Z,10.48
2022-12-18T07:23:16.859Z,10.46
2022-12-18T07:26:24.269Z,10.53
2022-12-18T07:29:30.469Z,10.58
2022-12-18T07:32:38.111Z,10.77
2022-12-18T07:35:44.088Z,10.51
2022-12-18T07:38:52.650Z,10.46
2022-12-18T07:42:16.713Z,10.52
2022-12-18T07:45:22.618Z,10.62
2022-12-18T07:48:30.481Z,10.71
2022-12-18T07:51:36.777Z,10.78
2022-12-18T07:54:43.560Z,10.76
2022-12-18T07:57:51.860Z,10.59
2022-12-18T08:01:05.254Z,10.63
2022-12-18T08:04:13.968Z,10.69
2022-12-18T08:07:20.054Z,10.16
2022-12-18T08:10:26.419Z,10.18
2022-12-18T08:13:32.433Z,10.12
2022-12-18T08:16:39.069Z,10.12
2022-12-18T08:19:46.998Z,10.18
2022-12-18T08:22:53.648Z,10.42
2022-12-18T08:26:00.809Z,10.41
2022-12-18T08:29:07.075Z,10.31
2022-12-18T08:32:13.408Z,10.47
2022-12-18T08:35:21.096Z,10.54
2022-12-18T08:38:27.731Z,10.10
2022-12-18T08:41:34.197Z,10.30
2022-12-18T08:44:39.285Z,10.51
2022-12-18T08:47:45.697Z,10.11
2022-12-18T08:50:59.377Z,10.45
2022-12-18T08:54:06.749Z,10.56
2022-12-18T08:57:13.260Z,10.12
2022-12-18T09:00:20.103Z,10.52
2022-12-18T09:03:26.569Z,10.53
2022-12-18T09:06:34.398Z,9.78
2022-12-18T09:09:40.579Z,10.06
2022-12-18T09:12:47.196Z,9.97
2022-12-18T09:15:56.541Z,9.97
2022-12-18T09:19:04.460Z,9.94
2022-12-18T09:22:12.359Z,9.77
2022-12-18T09:25:19.015Z,9.93
2022-12-18T09:28:25.586Z,9.41
2022-12-18T09:31:32.211Z,9.70
2022-12-18T09:34:38.787Z,10.06
2022-12-18T09:37:46.662Z,9.83
2022-12-18T09:40:56.251Z,9.80
2022-12-18T09:44:05.249Z,10.90
2022-12-18T09:47:17.350Z,10.44
2022-12-18T09:50:29.687Z,10.45
2022-12-18T09:53:41.402Z,10.47
2022-12-18T09:56:48.238Z,10.49
2022-12-18T09:59:58.916Z,10.27
2022-12-18T10:03:12.124Z,10.87
2022-12-18T10:06:25.739Z,10.47
2022-12-18T10:09:39.546Z,10.34
2022-12-18T10:12:59.525Z,10.53
2022-12-18T10:16:14.995Z,10.27
2022-12-18T10:19:36.017Z,10.44
2022-12-18T10:22:55.905Z,11.01
2022-12-18T10:26:06.036Z,10.97
2022-12-18T10:29:15.003Z,10.27
2022-12-18T10:32:23.066Z,10.23
2022-12-18T10:35:29.900Z,10.18
2022-12-18T10:38:37.016Z,10.46
2022-12-18T10:41:44.493Z,10.99
2022-12-18T10:45:04.562Z,10.80
2022-12-18T10:48:22.207Z,10.35
2022-12-18T10:51:32.509Z,10.62
2022-12-18T10:54:40.202Z,10.56
2022-12-18T10:57:47.782Z,10.09
2022-12-18T11:01:10.583Z,10.44
2022-12-18T11:04:20.169Z,10.80
2022-12-18T11:07:26.704Z,11.02
2022-12-18T11:10:34.887Z,10.79
2022-12-18T11:13:42.897Z,10.70
2022-12-18T11:17:24.463Z,10.83
2022-12-18T11:20:26.081Z,10.46
2022-12-18T11:23:32.577Z,10.40
2022-12-18T11:26:40.678Z,10.34
2022-12-18T11:29:52.465Z,10.29
2022-12-18T11:33:05.769Z,10.40
2022-12-18T11:36:13.266Z,10.79
2022-12-18T11:39:23.328Z,10.80
2022-12-18T11:42:36.930Z,10.54
2022-12-18T11:45:53.159Z,10.42
2022-12-18T11:49:04.240Z,10.51
2022-12-18T11:52:16.647Z,10.35
2022-12-18T11:55:33.016Z,10.63
2022-12-18T11:58:48.863Z,10.24
2022-12-18T12:02:01.310Z,10.09
2022-12-18T12:05:23.253Z,10.50
2022-12-18T12:08:43.054Z,10.08
2022-12-18T12:12:03.791Z,10.39
2022-12-18T12:15:19.701Z,10.16
2022-12-18T12:18:37.055Z,9.97
2022-12-18T12:21:45.141Z,10.11
2022-12-18T12:25:03.206Z,10.41
2022-12-18T12:28:21.686Z,10.33
2022-12-18T12:31:41.957Z,10.16
2022-12-18T12:35:01.807Z,10.30
2022-12-18T12:38:15.933Z,9.95
2022-12-18T12:41:43.652Z,9.97
2022-12-18T12:44:57.095Z,10.11
2022-12-18T12:48:05.754Z,10.33
2022-12-18T12:51:19.685Z,10.34
2022-12-18T12:54:29.953Z,10.24
2022-12-18T13:02:17.064Z,9.51
2022-12-18T13:05:30.521Z,9.87
2022-12-18T13:08:56.960Z,9.64
2022-12-18T13:12:34.879Z,9.54
2022-12-18T13:15:44.321Z,9.36
2022-12-18T13:18:53.814Z,9.37
2022-12-18T13:21:59.902Z,9.03
2022-12-18T13:25:30.754Z,8.92
2022-12-18T13:28:55.359Z,8.84
2022-12-18T13:32:02.982Z,8.89
2022-12-18T13:35:40.986Z,8.50
2022-12-18T13:38:47.317Z,8.64
2022-12-18T13:42:35.981Z,8.91
2022-12-18T13:45:52.284Z,8.36
2022-12-18T13:49:02.178Z,8.48
2022-12-18T13:52:19.622Z,8.90
2022-12-18T13:55:26.602Z,8.26
2022-12-18T13:58:34.277Z,8.42
2022-12-18T14:01:45.296Z,8.02
2022-12-18T14:04:53.266Z,8.15
2022-12-18T14:08:04.069Z,8.30
2022-12-18T14:11:22.611Z,8.28
2022-12-18T14:14:33.519Z,7.94
2022-12-18T14:17:40.031Z,8.43
2022-12-18T14:20:52.926Z,8.34
2022-12-18T14:24:08.299Z,8.66
2022-12-18T14:27:23.521Z,8.11
2022-12-18T14:30:33.856Z,8.95
2022-12-18T14:33:41.897Z,8.20
2022-12-18T14:36:56.351Z,8.22
2022-12-18T14:40:10.837Z,8.09
2022-12-18T14:43:23.322Z,8.00
2022-12-18T14:46:37.186Z,7.93
2022-12-18T14:49:44.711Z,7.94
2022-12-18T14:52:51.585Z,7.79
2022-12-18T14:55:58.282Z,7.86
2022-12-18T14:59:06.960Z,7.87
2022-12-18T15:02:23.268Z,7.86
2022-12-18T15:05:31.762Z,7.86
2022-12-18T15:08:39.216Z,7.61
2022-12-18T15:11:49.638Z,8.03
2022-12-18T15:14:55.795Z,7.43
2022-12-18T15:57:23.152Z,7.34
2022-12-18T16:00:29.882Z,7.05
2022-12-18T16:03:36.000Z,7.13
2022-12-18T16:07:12.650Z,6.91
2022-12-18T16:10:09.361Z,7.04
2022-12-18T16:13:21.448Z,6.97
2022-12-18T16:16:27.436Z,7.02
2022-12-18T16:19:34.636Z,6.99
2022-12-18T16:22:40.738Z,6.93
2022-12-18T16:25:47.505Z,6.87
2022-12-18T16:28:55.235Z,6.84
2022-12-18T16:32:03.280Z,6.89
2022-12-18T16:35:12.387Z,6.95
2022-12-18T16:38:18.585Z,7.14
2022-12-18T16:41:34.082Z,6.82
2022-12-18T16:57:22.690Z,7.14
2022-12-18T17:00:31.645Z,7.07
2022-12-18T17:03:38.442Z,7.00
2022-12-18T17:06:51.821Z,6.99
2022-12-18T17:09:59.045Z,6.81
2022-12-18T17:13:06.743Z,6.89
2022-12-18T17:16:13.280Z,6.94
2022-12-18T17:32:07.776Z,6.52
2022-12-18T17:35:13.965Z,6.58
2022-12-18T17:38:20.624Z,6.76
2022-12-18T17:41:28.127Z,6.55
2022-12-18T17:44:35.057Z,6.34
2022-12-18T17:47:42.604Z,6.26
2022-12-18T17:50:48.992Z,6.24
2022-12-18T17:53:55.103Z,6.28
2022-12-18T17:57:01.275Z,6.47
2022-12-18T18:00:08.757Z,6.56
2022-12-18T18:03:16.661Z,6.51
2022-12-18T18:06:23.123Z,6.27
2022-12-18T18:09:29.372Z,6.65
2022-12-18T18:12:53.385Z,6.50
2022-12-18T18:15:59.732Z,6.12
2022-12-18T18:19:09.796Z,6.22
2022-12-18T18:22:17.452Z,6.20
2022-12-18T18:25:24.339Z,6.33
2022-12-18T18:28:30.924Z,6.32
2022-12-18T18:31:40.890Z,6.37
2022-12-18T18:34:49.153Z,6.46
2022-12-18T18:37:55.276Z,6.27
2022-12-18T18:41:01.614Z,6.43
2022-12-18T18:44:08.369Z,6.33
2022-12-18T18:47:15.251Z,6.24
2022-12-18T18:50:22.906Z,6.25
2022-12-18T18:53:29.872Z,6.36
2022-12-18T19:00:02.414Z,6.36
2022-12-18T19:03:08.531Z,6.35
2022-12-18T19:06:18.375Z,6.33
2022-12-18T19:09:24.919Z,6.32
2022-12-18T19:12:49.602Z,6.69
2022-12-18T19:15:57.271Z,6.42
2022-12-18T19:19:03.646Z,6.60
2022-12-18T19:22:11.553Z,6.31
2022-12-18T19:25:18.440Z,6.69
2022-12-18T19:28:28.771Z,6.56
2022-12-18T19:31:36.667Z,6.55
2022-12-18T19:34:43.616Z,6.59
2022-12-18T19:37:53.242Z,6.79
2022-12-18T19:41:00.001Z,6.74
2022-12-18T19:44:07.905Z,6.43
2022-12-18T19:47:15.006Z,6.00
2022-12-18T19:50:21.502Z,6.21
2022-12-18T19:53:29.107Z,6.11
2022-12-18T19:56:36.775Z,6.11
2022-12-18T19:59:43.257Z,6.38
2022-12-18T20:02:51.231Z,6.26
2022-12-18T20:05:57.473Z,6.25
2022-12-18T20:09:06.865Z,6.21
2022-12-18T20:12:12.996Z,6.52
2022-12-18T20:15:19.950Z,6.71
2022-12-18T20:18:26.237Z,6.44
2022-12-18T20:21:32.682Z,6.14
2022-12-18T20:24:40.369Z,6.17
2022-12-18T20:27:46.650Z,6.50
2022-12-18T20:30:59.748Z,6.17
2022-12-18T20:34:07.019Z,6.45
2022-12-18T20:37:13.210Z,6.65
2022-12-18T20:40:22.062Z,6.14
2022-12-18T20:43:28.309Z,6.29
2022-12-18T20:46:34.392Z,6.13
2022-12-18T20:49:42.654Z,6.23
2022-12-18T20:52:51.824Z,6.30
2022-12-18T20:56:00.070Z,6.31
2022-12-18T20:59:06.422Z,6.21
2022-12-18T21:02:14.539Z,6.11
2022-12-18T21:05:21.316Z,6.11
2022-12-18T21:08:27.522Z,6.21
2022-12-18T21:11:53.091Z,6.06
2022-12-18T21:15:00.177Z,6.02
2022-12-18T21:18:06.697Z,6.11
2022-12-18T21:21:13.310Z,6.19
2022-12-18T21:24:19.688Z,6.13
2022-12-18T21:27:27.614Z,6.04
2022-12-18T21:30:34.358Z,6.06
2022-12-18T21:33:40.351Z,6.16
2022-12-18T21:36:47.311Z,6.36
2022-12-18T21:39:53.624Z,6.16
2022-12-18T21:43:29.756Z,6.15
2022-12-18T21:46:37.241Z,6.24
2022-12-18T21:49:43.689Z,6.11
2022-12-18T21:52:50.904Z,6.08
2022-12-18T21:55:59.502Z,6.18
2022-12-18T21:59:07.272Z,6.26
2022-12-18T22:02:15.938Z,5.91
2022-12-18T22:05:21.993Z,5.80
2022-12-18T22:08:28.461Z,5.86
2022-12-18T22:11:35.013Z,5.86
2022-12-18T22:14:42.723Z,5.93
2022-12-18T22:17:48.860Z,6.11
2022-12-18T22:21:03.099Z,6.48
2022-12-18T22:24:13.705Z,6.01
2022-12-18T22:27:20.093Z,6.02
2022-12-18T22:30:26.838Z,6.34
2022-12-18T22:33:33.440Z,6.35
2022-12-18T22:36:41.693Z,6.49
2022-12-18T22:39:48.158Z,6.47
2022-12-18T22:42:55.011Z,6.63
2022-12-18T22:46:05.610Z,6.61
2022-12-18T22:49:14.646Z,6.50
2022-12-18T22:52:21.160Z,6.36
2022-12-18T22:55:29.901Z,6.44
2022-12-18T22:58:36.583Z,6.35
2022-12-18T23:01:44.430Z,6.44
2022-12-18T23:04:52.736Z,6.47
2022-12-18T23:07:59.434Z,6.47
2022-12-18T23:11:06.493Z,6.23
2022-12-18T23:14:13.160Z,6.07
2022-12-18T23:17:20.913Z,6.04
2022-12-18T23:20:27.105Z,6.20
2022-12-18T23:23:36.024Z,6.02
2022-12-18T23:26:42.718Z,5.91
2022-12-18T23:29:48.974Z,6.13
2022-12-18T23:32:58.761Z,6.21
2022-12-18T23:36:06.247Z,6.17
2022-12-18T23:39:20.889Z,6.33
2022-12-18T23:42:35.625Z,6.42
2022-12-18T23:45:41.918Z,6.23
2022-12-18T23:48:49.838Z,6.24
2022-12-18T23:51:56.472Z,6.17
2022-12-18T23:55:02.744Z,6.22
2022-12-18T23:58:16.211Z,6.53
